Main page
METAR-TAF:

METAR-TAF

Airports :

Weno, Weno Island, Micronesia

Chuuk International Airport

latitude: 07-28N, longitude: 151-51E, elevation: 3 m

Current weather observation

The report was made 27 minutes ago, at 01:50 UTC
Wind 9 kt from the North/Northeast
Temperature 31°C
Humidity 79%
Pressure 1009 hPa
Visibility: 24.1 km
Few clouds at a height of 1400 ft, Towering cumulus.
Scattered clouds at a height of 12000 ft
Overcast at a height of 28000 ft

METAR: PTKK 270150Z 03009KT 15SM FEW014TCU SCT120 OVC280 31/27 A2980 RMK TCU NE SLP093 T03110274

Time: 12:17 (02:17 UTC)

Forecast

The report was made 2 hours and 57 minutes ago, at 23:20 UTC
Forecast valid from 27 at 00 UTC to 27 at 24 UTC
Wind 7 kt from the Northeast
Visibility: 10 km
Few clouds at a height of 1400 ft
Scattered clouds at a height of 12000 ft
Overcast at a height of 28000 ft
showers in vicinity

TAF: PTKK 262320Z 2700/2724 05007KT P6SM VCSH FEW014 SCT120 OVC280

Weather observations and forecasts of more than 4000 airports (METAR and TAF reports).

The available stations are represented by yellow and red dots on the map.

Hover mouse over dot to see the name of the station.

Then click to see weather observations and forecasts.

To change the map : click on the green buttons with a black cross to zoom in, on the green button with a dash to zoom out, or on the green arrows for adjacent maps.


METAR-TAF: